createdAt,value
2023-05-21T00:00:40.169Z,910.00
2023-05-21T00:01:40.155Z,938.00
2023-05-21T00:02:40.298Z,975.00
2023-05-21T00:03:40.277Z,956.00
2023-05-21T00:04:40.249Z,944.00
2023-05-21T00:05:40.347Z,958.00
2023-05-21T00:06:40.346Z,951.00
2023-05-21T00:07:40.384Z,958.00
2023-05-21T00:08:40.424Z,956.00
2023-05-21T00:09:40.444Z,962.00
2023-05-21T00:10:40.497Z,962.00
2023-05-21T00:11:40.529Z,1001.00
2023-05-21T00:12:40.544Z,1042.00
2023-05-21T00:13:40.600Z,1090.00
2023-05-21T00:14:40.602Z,1099.00
2023-05-21T00:15:40.634Z,1105.00
2023-05-21T00:16:40.672Z,1142.00
2023-05-21T00:17:40.701Z,1170.00
2023-05-21T00:18:40.663Z,1198.00
2023-05-21T00:19:40.745Z,1213.00
2023-05-21T00:20:40.662Z,1221.00
2023-05-21T00:21:40.638Z,1232.00
2023-05-21T00:22:40.634Z,1236.00
2023-05-21T00:23:40.649Z,1251.00
2023-05-21T00:24:40.649Z,1247.00
2023-05-21T00:25:40.650Z,1269.00
2023-05-21T00:26:40.657Z,1265.00
2023-05-21T00:27:40.637Z,1271.00
2023-05-21T00:28:40.653Z,1284.00
2023-05-21T00:29:42.316Z,1283.00
2023-05-21T00:30:40.673Z,1288.00
2023-05-21T00:31:40.666Z,1305.00
2023-05-21T00:32:40.666Z,1307.00
2023-05-21T00:33:40.665Z,1314.00
2023-05-21T00:34:40.671Z,1315.00
2023-05-21T00:35:40.668Z,1332.00
2023-05-21T00:36:40.633Z,1330.00
2023-05-21T00:37:40.606Z,1337.00
2023-05-21T00:38:40.602Z,1355.00
2023-05-21T00:39:40.583Z,1341.00
2023-05-21T00:40:40.593Z,1327.00
2023-05-21T00:41:41.375Z,1322.00
2023-05-21T00:42:40.582Z,1329.00
2023-05-21T00:43:40.583Z,1321.00
2023-05-21T00:44:40.574Z,1319.00
2023-05-21T00:45:40.561Z,1289.00
2023-05-21T00:46:40.554Z,1293.00
2023-05-21T00:47:40.555Z,1287.00
2023-05-21T00:48:40.552Z,1288.00
2023-05-21T00:49:40.542Z,1282.00
2023-05-21T00:50:40.521Z,1292.00
2023-05-21T00:51:40.523Z,1307.00
2023-05-21T00:52:40.496Z,1301.00
2023-05-21T00:53:40.503Z,1301.00
2023-05-21T00:54:40.502Z,1298.00
2023-05-21T00:55:40.516Z,1305.00
2023-05-21T00:56:40.511Z,1304.00
2023-05-21T00:57:40.493Z,1328.00
2023-05-21T00:58:40.474Z,1339.00
2023-05-21T00:59:40.435Z,1364.00
2023-05-21T01:00:40.485Z,1367.00
2023-05-21T01:01:40.482Z,1375.00
2023-05-21T01:02:40.563Z,1381.00
2023-05-21T01:03:40.482Z,1388.00
2023-05-21T01:04:40.453Z,1395.00
2023-05-21T01:05:40.426Z,1401.00
2023-05-21T01:06:40.444Z,1411.00
2023-05-21T01:07:40.439Z,1409.00
2023-05-21T01:08:40.398Z,1418.00
2023-05-21T01:09:40.410Z,1430.00
2023-05-21T01:10:40.404Z,1439.00
2023-05-21T01:11:40.396Z,1455.00
2023-05-21T01:12:40.376Z,1462.00
2023-05-21T01:13:40.364Z,1445.00
2023-05-21T01:14:40.400Z,1456.00
2023-05-21T01:15:40.388Z,1462.00
2023-05-21T01:16:40.449Z,1470.00
2023-05-21T01:17:40.406Z,1459.00
2023-05-21T01:18:40.420Z,1495.00
2023-05-21T01:19:40.393Z,1495.00
2023-05-21T01:20:40.342Z,1500.00
2023-05-21T01:21:40.348Z,1502.00
2023-05-21T01:22:40.308Z,1505.00
2023-05-21T01:23:40.295Z,1486.00
2023-05-21T01:24:40.287Z,1495.00
2023-05-21T01:25:40.317Z,1496.00
2023-05-21T01:26:40.283Z,1499.00
2023-05-21T01:27:40.267Z,1508.00
2023-05-21T01:28:40.303Z,1514.00
2023-05-21T01:29:40.276Z,1496.00
2023-05-21T01:30:40.305Z,1490.00
2023-05-21T01:31:40.253Z,1499.00
2023-05-21T01:32:40.291Z,1498.00
2023-05-21T01:33:40.296Z,1495.00
2023-05-21T01:34:40.220Z,1491.00
2023-05-21T01:35:40.266Z,1497.00
2023-05-21T01:36:40.229Z,1500.00
2023-05-21T01:37:40.243Z,1489.00
2023-05-21T01:38:40.294Z,1487.00
2023-05-21T01:39:40.227Z,1485.00
2023-05-21T01:40:40.206Z,1483.00
2023-05-21T01:41:40.190Z,1477.00
2023-05-21T01:42:41.930Z,1460.00
2023-05-21T01:43:40.196Z,1457.00
2023-05-21T01:44:40.186Z,1447.00
2023-05-21T01:45:40.188Z,1447.00
2023-05-21T01:46:40.190Z,1443.00
2023-05-21T01:47:40.197Z,1443.00
2023-05-21T01:48:40.150Z,1435.00
2023-05-21T01:49:40.124Z,1424.00
2023-05-21T01:50:40.135Z,1429.00
2023-05-21T01:51:40.136Z,1424.00
2023-05-21T01:52:40.110Z,1425.00
2023-05-21T01:53:40.106Z,1420.00
2023-05-21T01:54:40.139Z,1419.00
2023-05-21T01:55:40.169Z,1413.00
2023-05-21T01:56:40.110Z,1419.00
2023-05-21T01:57:40.110Z,1437.00
2023-05-21T01:58:40.096Z,1434.00
2023-05-21T01:59:40.088Z,1454.00
2023-05-21T02:00:40.128Z,1439.00
2023-05-21T02:01:40.119Z,1448.00
2023-05-21T02:02:40.142Z,1458.00
2023-05-21T02:03:40.108Z,1457.00
2023-05-21T02:04:40.043Z,1480.00
2023-05-21T02:05:40.064Z,1495.00
2023-05-21T02:06:40.055Z,1511.00
2023-05-21T02:07:40.057Z,1497.00
2023-05-21T02:08:40.090Z,1508.00
2023-05-21T02:09:40.105Z,1525.00
2023-05-21T02:10:40.133Z,1527.00
2023-05-21T02:11:40.154Z,1540.00
2023-05-21T02:12:40.173Z,1536.00
2023-05-21T02:13:40.201Z,1539.00
2023-05-21T02:14:40.202Z,1545.00
2023-05-21T02:15:40.238Z,1542.00
2023-05-21T02:16:40.377Z,1551.00
2023-05-21T02:17:40.298Z,1552.00
2023-05-21T02:18:40.263Z,1553.00
2023-05-21T02:19:40.310Z,1543.00
2023-05-21T02:20:40.352Z,1549.00
2023-05-21T02:21:40.335Z,1542.00
2023-05-21T02:22:40.399Z,1545.00
2023-05-21T02:23:40.435Z,1530.00
2023-05-21T02:24:40.464Z,1526.00
2023-05-21T02:25:40.506Z,1520.00
2023-05-21T02:26:40.519Z,1507.00
2023-05-21T02:27:40.582Z,1520.00
2023-05-21T02:28:40.588Z,1509.00
2023-05-21T02:29:40.633Z,1507.00
2023-05-21T02:30:40.687Z,1506.00
2023-05-21T02:31:40.746Z,1499.00
2023-05-21T02:32:40.825Z,1487.00
2023-05-21T02:33:40.854Z,1498.00
2023-05-21T02:34:40.833Z,1510.00
2023-05-21T02:35:40.942Z,1512.00
2023-05-21T02:36:40.940Z,1510.00
2023-05-21T02:37:41.008Z,1500.00
2023-05-21T02:38:41.051Z,1508.00
2023-05-21T02:39:41.106Z,1510.00
2023-05-21T02:40:41.125Z,1503.00
2023-05-21T02:41:41.180Z,1486.00
2023-05-21T02:42:41.239Z,1485.00
2023-05-21T02:43:41.936Z,1491.00
2023-05-21T02:44:41.308Z,1472.00
2023-05-21T02:45:41.391Z,1476.00
2023-05-21T02:46:41.417Z,1463.00
2023-05-21T02:47:41.553Z,1477.00
2023-05-21T02:48:41.479Z,1452.00
2023-05-21T02:49:41.556Z,1449.00
2023-05-21T02:50:41.585Z,1455.00
2023-05-21T02:51:41.657Z,1444.00
2023-05-21T02:52:41.693Z,1447.00
2023-05-21T02:53:41.735Z,1437.00
2023-05-21T02:54:41.754Z,1437.00
2023-05-21T02:55:41.829Z,1428.00
2023-05-21T02:56:41.857Z,1430.00
2023-05-21T02:57:41.900Z,1427.00
2023-05-21T02:58:41.934Z,1425.00
2023-05-21T02:59:41.964Z,1434.00
2023-05-21T03:00:42.092Z,1411.00
2023-05-21T03:01:42.100Z,1412.00
2023-05-21T03:02:42.240Z,1398.00
2023-05-21T03:03:42.207Z,1386.00
2023-05-21T03:04:42.184Z,1394.00
2023-05-21T03:05:42.301Z,1378.00
2023-05-21T03:06:42.264Z,1368.00
2023-05-21T03:07:42.341Z,1346.00
2023-05-21T03:08:42.374Z,1340.00
2023-05-21T03:09:42.482Z,1323.00
2023-05-21T03:10:42.452Z,1315.00
2023-05-21T03:11:42.460Z,1310.00
2023-05-21T03:12:42.553Z,1314.00
2023-05-21T03:13:42.588Z,1297.00
2023-05-21T03:14:42.687Z,1275.00
2023-05-21T03:15:42.699Z,1275.00
2023-05-21T03:16:42.696Z,1265.00
2023-05-21T03:17:42.816Z,1278.00
2023-05-21T03:18:42.795Z,1265.00
2023-05-21T03:19:42.881Z,1265.00
2023-05-21T03:20:42.900Z,1253.00
2023-05-21T03:21:42.922Z,1256.00
2023-05-21T03:22:42.958Z,1254.00
2023-05-21T03:23:42.988Z,1251.00
2023-05-21T03:24:43.048Z,1274.00
2023-05-21T03:25:43.094Z,1285.00
2023-05-21T03:26:43.164Z,1287.00
2023-05-21T03:27:43.232Z,1302.00
2023-05-21T03:28:43.224Z,1315.00
2023-05-21T03:29:43.301Z,1311.00
2023-05-21T03:30:43.310Z,1299.00
2023-05-21T03:31:43.368Z,1287.00
2023-05-21T03:32:43.452Z,1283.00
2023-05-21T03:33:43.471Z,1283.00
2023-05-21T03:34:43.502Z,1275.00
2023-05-21T03:35:43.575Z,1259.00
2023-05-21T03:36:43.656Z,1267.00
2023-05-21T03:37:43.651Z,1255.00
2023-05-21T03:38:43.704Z,1263.00
2023-05-21T03:39:43.749Z,1260.00
2023-05-21T03:40:43.791Z,1252.00
2023-05-21T03:41:43.855Z,1260.00
2023-05-21T03:42:43.888Z,1260.00
2023-05-21T03:43:43.946Z,1257.00
2023-05-21T03:44:43.996Z,1251.00
2023-05-21T03:45:44.657Z,1251.00
2023-05-21T03:46:44.118Z,1251.00
2023-05-21T03:47:44.229Z,1244.00
2023-05-21T03:48:44.230Z,1269.00
2023-05-21T03:49:44.287Z,1259.00
2023-05-21T03:50:44.334Z,1250.00
2023-05-21T03:51:44.406Z,1245.00
2023-05-21T03:52:44.449Z,1266.00
2023-05-21T03:53:44.502Z,1259.00
2023-05-21T03:54:44.542Z,1263.00
2023-05-21T03:55:44.621Z,1255.00
2023-05-21T03:56:44.636Z,1247.00
2023-05-21T03:57:44.705Z,1261.00
2023-05-21T03:58:44.761Z,1274.00
2023-05-21T03:59:44.837Z,1284.00
2023-05-21T04:00:44.922Z,1297.00
2023-05-21T04:01:44.930Z,1298.00
2023-05-21T04:02:45.056Z,1302.00
2023-05-21T04:03:45.203Z,1300.00
2023-05-21T04:04:45.086Z,1310.00
2023-05-21T04:05:45.199Z,1305.00
2023-05-21T04:06:45.262Z,1311.00
2023-05-21T04:07:45.270Z,1324.00
2023-05-21T04:08:45.325Z,1332.00
2023-05-21T04:09:45.386Z,1340.00
2023-05-21T04:10:45.452Z,1342.00
2023-05-21T04:11:45.514Z,1351.00
2023-05-21T04:12:45.541Z,1359.00
2023-05-21T04:13:45.631Z,1360.00
2023-05-21T04:14:45.683Z,1374.00
2023-05-21T04:15:45.774Z,1394.00
2023-05-21T04:16:45.808Z,1396.00
2023-05-21T04:17:45.887Z,1426.00
2023-05-21T04:18:45.935Z,1443.00
2023-05-21T04:19:46.004Z,1444.00
2023-05-21T04:20:46.057Z,1454.00
2023-05-21T04:21:46.154Z,1456.00
2023-05-21T04:22:46.188Z,1475.00
2023-05-21T04:23:46.343Z,1493.00
2023-05-21T04:24:46.274Z,1522.00
2023-05-21T04:25:46.375Z,1513.00
2023-05-21T04:26:46.421Z,1522.00
2023-05-21T04:27:46.446Z,1535.00
2023-05-21T04:28:46.545Z,1552.00
2023-05-21T04:29:47.321Z,1551.00
2023-05-21T04:30:46.651Z,1551.00
2023-05-21T04:31:46.822Z,1557.00
2023-05-21T04:32:46.885Z,1567.00
2023-05-21T04:33:46.837Z,1555.00
2023-05-21T04:34:46.943Z,1550.00
2023-05-21T04:35:46.947Z,1544.00
2023-05-21T04:36:47.066Z,1533.00
2023-05-21T04:37:47.080Z,1534.00
2023-05-21T04:38:47.115Z,1555.00
2023-05-21T04:39:47.190Z,1540.00
2023-05-21T04:40:47.269Z,1539.00
2023-05-21T04:41:47.402Z,1534.00
2023-05-21T04:42:47.354Z,1540.00
2023-05-21T04:43:47.415Z,1533.00
2023-05-21T04:44:47.465Z,1539.00
2023-05-21T04:45:47.529Z,1522.00
2023-05-21T04:46:47.622Z,1533.00
2023-05-21T04:47:47.732Z,1507.00
2023-05-21T04:48:47.726Z,1488.00
2023-05-21T04:49:47.776Z,1461.00
2023-05-21T04:50:47.820Z,1463.00
2023-05-21T04:51:47.878Z,1471.00
2023-05-21T04:52:47.950Z,1478.00
2023-05-21T04:53:48.023Z,1463.00
2023-05-21T04:54:48.056Z,1448.00
2023-05-21T04:55:48.156Z,1440.00
2023-05-21T04:56:48.189Z,1466.00
2023-05-21T04:57:48.243Z,1440.00
2023-05-21T04:58:48.285Z,1438.00
2023-05-21T04:59:48.342Z,1442.00
2023-05-21T05:00:48.465Z,1433.00
2023-05-21T05:01:48.467Z,1439.00
2023-05-21T05:02:48.611Z,1433.00
2023-05-21T05:03:48.705Z,1440.00
2023-05-21T05:04:48.673Z,1429.00
2023-05-21T05:05:48.744Z,1431.00
2023-05-21T05:06:48.800Z,1415.00
2023-05-21T05:07:48.877Z,1422.00
2023-05-21T05:08:48.907Z,1423.00
2023-05-21T05:09:48.972Z,1433.00
2023-05-21T05:10:49.060Z,1435.00
2023-05-21T05:11:49.098Z,1438.00
2023-05-21T05:12:49.207Z,1435.00
2023-05-21T05:13:49.256Z,1439.00
2023-05-21T05:14:49.275Z,1448.00
2023-05-21T05:15:50.603Z,1449.00
2023-05-21T05:16:49.416Z,1441.00
2023-05-21T05:17:49.514Z,1451.00
2023-05-21T05:18:49.558Z,1462.00
2023-05-21T05:19:49.546Z,1471.00
2023-05-21T05:20:49.613Z,1473.00
2023-05-21T05:21:49.650Z,1475.00
2023-05-21T05:22:49.737Z,1475.00
2023-05-21T05:23:49.738Z,1477.00
2023-05-21T05:24:49.849Z,1472.00
2023-05-21T05:25:49.853Z,1471.00
2023-05-21T05:26:49.911Z,1476.00
2023-05-21T05:27:50.004Z,1476.00
2023-05-21T05:28:50.030Z,1473.00
2023-05-21T05:29:50.070Z,1472.00
2023-05-21T05:30:50.125Z,1479.00
2023-05-21T05:31:50.176Z,1484.00
2023-05-21T05:32:50.279Z,1491.00
2023-05-21T05:33:50.277Z,1496.00
2023-05-21T05:34:50.322Z,1490.00
2023-05-21T05:35:50.375Z,1500.00
2023-05-21T05:36:50.441Z,1493.00
2023-05-21T05:37:50.483Z,1491.00
2023-05-21T05:38:50.529Z,1494.00
2023-05-21T05:39:50.608Z,1492.00
2023-05-21T05:40:50.624Z,1486.00
2023-05-21T05:41:50.703Z,1479.00
2023-05-21T05:42:50.737Z,1486.00
2023-05-21T05:43:50.806Z,1472.00
2023-05-21T05:44:50.801Z,1470.00
2023-05-21T05:45:50.930Z,1459.00
2023-05-21T05:46:50.959Z,1455.00
2023-05-21T05:47:51.041Z,1456.00
2023-05-21T05:48:51.050Z,1436.00
2023-05-21T05:49:51.075Z,1403.00
2023-05-21T05:50:51.168Z,1401.00
2023-05-21T05:51:51.219Z,1396.00
2023-05-21T05:52:51.284Z,1396.00
2023-05-21T05:53:51.315Z,1388.00
2023-05-21T05:54:51.353Z,1378.00
2023-05-21T05:55:51.412Z,1360.00
2023-05-21T05:56:53.048Z,1360.00
2023-05-21T05:57:51.545Z,1355.00
2023-05-21T05:58:51.561Z,1342.00
2023-05-21T05:59:51.631Z,1329.00
2023-05-21T06:00:51.663Z,1324.00
2023-05-21T06:01:51.708Z,1294.00
2023-05-21T06:02:51.856Z,1300.00
2023-05-21T06:03:51.887Z,1277.00
2023-05-21T06:04:51.857Z,1273.00
2023-05-21T06:05:51.916Z,1274.00
2023-05-21T06:06:51.949Z,1255.00
2023-05-21T06:07:52.018Z,1248.00
2023-05-21T06:08:52.055Z,1243.00
2023-05-21T06:09:52.127Z,1225.00
2023-05-21T06:10:52.130Z,1242.00
2023-05-21T06:11:52.195Z,1239.00
2023-05-21T06:12:52.221Z,1223.00
2023-05-21T06:13:52.276Z,1218.00
2023-05-21T06:14:52.336Z,1192.00
2023-05-21T06:15:52.374Z,1202.00
2023-05-21T06:16:52.374Z,1201.00
2023-05-21T06:17:52.470Z,1193.00
2023-05-21T06:18:52.499Z,1205.00
2023-05-21T06:19:52.501Z,1191.00
2023-05-21T06:20:52.549Z,1202.00
2023-05-21T06:21:52.579Z,1209.00
2023-05-21T06:22:52.649Z,1204.00
2023-05-21T06:23:52.671Z,1203.00
2023-05-21T06:24:52.728Z,1200.00
2023-05-21T06:25:52.764Z,1197.00
2023-05-21T06:26:52.837Z,1204.00
2023-05-21T06:27:52.820Z,1211.00
2023-05-21T06:28:52.834Z,1192.00
2023-05-21T06:29:52.870Z,1188.00
2023-05-21T06:30:52.920Z,1184.00
2023-05-21T06:31:52.956Z,1166.00
2023-05-21T06:32:53.096Z,1188.00
2023-05-21T06:33:53.150Z,1176.00
2023-05-21T06:34:53.016Z,1178.00
2023-05-21T06:35:53.053Z,1164.00
2023-05-21T06:36:53.098Z,1169.00
2023-05-21T06:37:53.128Z,1164.00
2023-05-21T06:38:53.138Z,1160.00
2023-05-21T06:39:53.197Z,1150.00
2023-05-21T06:40:53.188Z,1124.00
2023-05-21T06:41:53.247Z,1112.00
2023-05-21T06:42:53.367Z,1110.00
2023-05-21T06:43:53.314Z,1089.00
2023-05-21T06:44:53.313Z,1080.00
2023-05-21T06:45:53.380Z,1105.00
2023-05-21T06:46:53.402Z,1107.00
2023-05-21T06:47:53.440Z,1089.00
2023-05-21T06:48:53.480Z,1079.00
2023-05-21T06:49:53.496Z,1087.00
2023-05-21T06:50:53.521Z,1092.00
2023-05-21T06:51:53.570Z,1084.00
2023-05-21T06:52:53.579Z,1093.00
2023-05-21T06:53:53.642Z,1117.00
2023-05-21T06:54:53.671Z,1108.00
2023-05-21T06:55:53.859Z,1108.00
2023-05-21T06:56:53.704Z,1096.00
2023-05-21T06:57:53.732Z,1103.00
2023-05-21T06:58:53.785Z,1095.00
2023-05-21T06:59:53.806Z,1076.00
2023-05-21T07:00:53.885Z,1062.00
2023-05-21T07:01:53.920Z,1058.00
2023-05-21T07:02:53.961Z,1049.00
2023-05-21T07:03:53.924Z,1061.00
2023-05-21T07:04:53.956Z,1053.00
2023-05-21T07:05:53.964Z,1055.00
2023-05-21T07:06:54.004Z,1058.00
2023-05-21T07:07:53.990Z,1066.00
2023-05-21T07:08:54.036Z,1069.00
2023-05-21T07:09:54.061Z,1029.00
2023-05-21T07:10:54.123Z,1041.00
2023-05-21T07:11:54.085Z,1030.00
2023-05-21T07:12:54.097Z,1045.00
2023-05-21T07:13:54.171Z,1031.00
2023-05-21T07:14:54.175Z,1027.00
2023-05-21T07:15:54.192Z,1051.00
2023-05-21T07:16:54.216Z,1061.00
2023-05-21T07:17:54.303Z,1060.00
2023-05-21T07:18:54.256Z,1047.00
2023-05-21T07:19:54.224Z,1060.00
2023-05-21T07:20:54.258Z,1049.00
2023-05-21T07:21:54.328Z,1039.00
2023-05-21T07:22:54.295Z,1054.00
2023-05-21T07:23:54.301Z,1052.00
2023-05-21T07:24:54.320Z,1058.00
2023-05-21T07:25:54.303Z,1069.00
2023-05-21T07:26:54.324Z,1071.00
2023-05-21T07:27:54.315Z,1069.00
2023-05-21T07:28:54.335Z,1090.00
2023-05-21T07:29:54.346Z,1108.00
2023-05-21T07:30:54.393Z,1127.00
2023-05-21T07:31:54.324Z,1152.00
2023-05-21T07:32:54.375Z,1165.00
2023-05-21T07:33:54.330Z,1155.00
2023-05-21T07:34:54.613Z,1157.00
2023-05-21T07:35:54.340Z,1176.00
2023-05-21T07:36:54.334Z,1176.00
2023-05-21T07:37:54.419Z,1194.00
2023-05-21T07:38:54.363Z,1215.00
2023-05-21T07:39:54.305Z,1209.00
2023-05-21T07:40:54.346Z,1203.00
2023-05-21T07:41:54.411Z,1144.00
2023-05-21T07:42:54.412Z,1134.00
2023-05-21T07:43:54.441Z,1151.00
2023-05-21T07:44:54.496Z,1190.00
2023-05-21T07:45:54.550Z,1235.00
2023-05-21T07:46:54.555Z,1257.00
2023-05-21T07:47:54.602Z,1281.00
2023-05-21T07:48:54.627Z,1269.00
2023-05-21T07:49:54.702Z,1298.00
2023-05-21T07:50:54.782Z,1305.00
2023-05-21T07:51:54.832Z,1313.00
2023-05-21T07:52:54.965Z,1292.00
2023-05-21T07:53:55.456Z,1276.00
2023-05-21T07:54:55.026Z,1292.00
2023-05-21T07:55:55.545Z,1356.00
2023-05-21T07:56:55.154Z,1370.00
2023-05-21T07:57:55.169Z,1375.00
2023-05-21T07:58:55.245Z,1386.00
2023-05-21T07:59:55.330Z,1416.00
2023-05-21T08:00:55.356Z,1411.00
2023-05-21T08:01:55.381Z,1433.00
2023-05-21T08:02:55.511Z,1452.00
2023-05-21T08:03:55.608Z,1453.00
2023-05-21T08:04:55.578Z,1459.00
2023-05-21T08:05:55.608Z,1488.00
2023-05-21T08:06:55.661Z,1449.00
2023-05-21T08:07:55.670Z,1440.00
2023-05-21T08:08:55.727Z,1473.00
2023-05-21T08:09:55.798Z,1491.00
2023-05-21T08:10:55.831Z,1501.00
2023-05-21T08:11:55.840Z,1509.00
2023-05-21T08:12:55.910Z,1487.00
2023-05-21T08:13:55.948Z,1443.00
2023-05-21T08:14:56.000Z,1413.00
2023-05-21T08:15:56.066Z,1429.00
2023-05-21T08:16:56.066Z,1434.00
2023-05-21T08:17:56.104Z,1467.00
2023-05-21T08:18:56.150Z,1469.00
2023-05-21T08:19:56.179Z,1480.00
2023-05-21T08:20:56.179Z,1464.00
2023-05-21T08:21:56.238Z,1470.00
2023-05-21T08:22:56.223Z,1476.00
2023-05-21T08:23:56.259Z,1489.00
2023-05-21T08:24:56.304Z,1501.00
2023-05-21T08:25:56.322Z,1510.00
2023-05-21T08:26:56.325Z,1509.00
2023-05-21T08:27:56.375Z,1512.00
2023-05-21T08:28:56.394Z,1512.00
2023-05-21T08:29:56.446Z,1526.00
2023-05-21T08:30:56.453Z,1527.00
2023-05-21T08:31:56.509Z,1517.00
2023-05-21T08:32:56.545Z,1511.00
2023-05-21T08:33:56.533Z,1504.00
2023-05-21T08:34:56.553Z,1506.00
2023-05-21T08:35:56.605Z,1490.00
2023-05-21T08:36:56.591Z,1463.00
2023-05-21T08:37:56.617Z,1425.00
2023-05-21T08:38:56.595Z,1390.00
2023-05-21T08:39:56.642Z,1397.00
2023-05-21T08:40:56.684Z,1364.00
2023-05-21T08:41:56.666Z,1350.00
2023-05-21T08:42:56.676Z,1346.00
2023-05-21T08:43:56.724Z,1301.00
2023-05-21T08:44:56.747Z,1264.00
2023-05-21T08:45:56.759Z,1271.00
2023-05-21T08:46:56.765Z,1248.00
2023-05-21T08:47:56.870Z,1283.00
2023-05-21T08:48:56.788Z,1297.00
2023-05-21T08:49:56.814Z,1266.00
2023-05-21T08:50:56.806Z,1309.00
2023-05-21T08:51:56.828Z,1314.00
2023-05-21T08:52:56.819Z,1315.00
2023-05-21T08:53:56.850Z,1316.00
2023-05-21T08:54:56.897Z,1298.00
2023-05-21T08:55:56.893Z,1314.00
2023-05-21T08:56:56.907Z,1310.00
2023-05-21T08:57:56.877Z,1316.00
2023-05-21T08:58:56.869Z,1321.00
2023-05-21T08:59:56.934Z,1341.00
2023-05-21T09:00:56.907Z,1350.00
2023-05-21T09:01:57.032Z,1342.00
2023-05-21T09:02:56.968Z,1343.00
2023-05-21T09:04:04.953Z,1338.00
2023-05-21T09:04:57.930Z,1338.00
2023-05-21T09:05:56.913Z,1314.00
2023-05-21T09:06:56.891Z,1267.00
2023-05-21T09:07:56.879Z,1261.00
2023-05-21T09:08:56.858Z,1221.00
2023-05-21T09:09:56.856Z,1204.00
2023-05-21T09:10:56.883Z,1191.00
2023-05-21T09:11:56.843Z,1188.00
2023-05-21T09:12:56.867Z,1185.00
2023-05-21T09:13:56.831Z,1179.00
2023-05-21T09:14:56.812Z,1181.00
2023-05-21T09:15:56.847Z,1168.00
2023-05-21T09:16:56.933Z,1166.00
2023-05-21T09:17:56.928Z,1131.00
2023-05-21T09:18:56.841Z,1112.00
2023-05-21T09:19:56.813Z,1106.00
2023-05-21T09:20:56.785Z,1047.00
2023-05-21T09:21:56.796Z,990.00
2023-05-21T09:22:56.789Z,928.00
2023-05-21T09:23:56.780Z,857.00
2023-05-21T09:24:56.756Z,809.00
2023-05-21T09:25:56.810Z,754.00
2023-05-21T09:26:56.772Z,739.00
2023-05-21T09:27:56.730Z,703.00
2023-05-21T09:28:56.738Z,680.00
2023-05-21T09:29:56.716Z,669.00
2023-05-21T09:30:56.814Z,666.00
2023-05-21T09:31:56.749Z,654.00
2023-05-21T09:32:56.763Z,640.00
2023-05-21T09:33:56.721Z,625.00
2023-05-21T09:34:56.716Z,627.00
2023-05-21T09:35:56.721Z,621.00
2023-05-21T09:36:56.707Z,626.00
2023-05-21T09:37:56.716Z,598.00
2023-05-21T09:38:56.664Z,601.00
2023-05-21T09:39:56.666Z,602.00
2023-05-21T09:40:56.762Z,611.00
2023-05-21T09:41:56.740Z,616.00
2023-05-21T09:42:56.803Z,599.00
2023-05-21T09:43:56.867Z,600.00
2023-05-21T09:44:56.955Z,598.00
2023-05-21T09:45:58.979Z,601.00
2023-05-21T09:46:57.105Z,601.00
2023-05-21T09:47:57.006Z,602.00
2023-05-21T09:48:56.962Z,584.00
2023-05-21T09:49:56.984Z,574.00
2023-05-21T09:50:56.956Z,567.00
2023-05-21T09:51:56.961Z,585.00
2023-05-21T09:52:56.928Z,599.00
2023-05-21T09:53:56.941Z,607.00
2023-05-21T09:54:56.929Z,600.00
2023-05-21T09:55:56.933Z,605.00
2023-05-21T09:56:56.953Z,609.00
2023-05-21T09:57:56.938Z,598.00
2023-05-21T09:58:56.904Z,599.00
2023-05-21T09:59:56.907Z,599.00
2023-05-21T10:00:56.898Z,588.00
2023-05-21T10:01:56.938Z,595.00
2023-05-21T10:02:56.938Z,597.00
2023-05-21T10:03:56.941Z,596.00
2023-05-21T10:04:56.884Z,603.00
2023-05-21T10:05:56.878Z,604.00
2023-05-21T10:06:56.879Z,600.00
2023-05-21T10:07:56.851Z,590.00
2023-05-21T10:08:56.852Z,600.00
2023-05-21T10:09:56.841Z,601.00
2023-05-21T10:10:56.881Z,600.00
2023-05-21T10:11:56.924Z,599.00
2023-05-21T10:12:56.976Z,596.00
2023-05-21T10:13:56.978Z,600.00
2023-05-21T10:14:57.044Z,603.00
2023-05-21T10:15:57.113Z,604.00
2023-05-21T10:16:57.123Z,608.00
2023-05-21T10:17:57.179Z,603.00
2023-05-21T10:18:57.222Z,600.00
2023-05-21T10:19:57.227Z,600.00
2023-05-21T10:20:57.240Z,602.00
2023-05-21T10:21:57.305Z,616.00
2023-05-21T10:22:57.347Z,631.00
2023-05-21T10:23:57.369Z,623.00
2023-05-21T10:24:57.421Z,619.00
2023-05-21T10:25:57.475Z,616.00
2023-05-21T10:26:57.465Z,609.00
2023-05-21T10:27:57.532Z,607.00
2023-05-21T10:28:57.553Z,614.00
2023-05-21T10:29:57.609Z,624.00
2023-05-21T10:30:57.663Z,620.00
2023-05-21T10:31:57.683Z,622.00
2023-05-21T10:32:57.934Z,623.00
2023-05-21T10:33:57.743Z,625.00
2023-05-21T10:34:59.315Z,639.00
2023-05-21T10:35:57.787Z,632.00
2023-05-21T10:36:57.772Z,624.00
2023-05-21T10:37:57.768Z,627.00
2023-05-21T10:38:57.731Z,628.00
2023-05-21T10:39:57.723Z,615.00
2023-05-21T10:40:57.755Z,606.00
2023-05-21T10:41:59.225Z,603.00
2023-05-21T10:42:57.719Z,607.00
2023-05-21T10:43:57.683Z,598.00
2023-05-21T10:44:57.712Z,601.00
2023-05-21T10:45:57.776Z,603.00
2023-05-21T10:46:57.696Z,608.00
2023-05-21T10:47:57.728Z,600.00
2023-05-21T10:48:57.671Z,600.00
2023-05-21T10:49:57.657Z,605.00
2023-05-21T10:50:57.675Z,614.00
2023-05-21T10:51:57.681Z,613.00
2023-05-21T10:52:57.670Z,605.00
2023-05-21T10:53:57.635Z,605.00
2023-05-21T10:54:57.653Z,604.00
2023-05-21T10:55:57.617Z,616.00
2023-05-21T10:56:57.602Z,623.00
2023-05-21T10:57:57.648Z,627.00
2023-05-21T10:58:57.649Z,619.00
2023-05-21T10:59:57.635Z,620.00
2023-05-21T11:00:57.670Z,631.00
2023-05-21T11:01:57.609Z,622.00
2023-05-21T11:02:57.664Z,626.00
2023-05-21T11:03:57.627Z,608.00
2023-05-21T11:04:57.585Z,615.00
2023-05-21T11:05:57.603Z,612.00
2023-05-21T11:06:58.624Z,604.00
2023-05-21T11:07:57.689Z,600.00
2023-05-21T11:08:57.564Z,599.00
2023-05-21T11:09:57.554Z,600.00
2023-05-21T11:10:57.606Z,604.00
2023-05-21T11:11:57.527Z,608.00
2023-05-21T11:12:57.532Z,601.00
2023-05-21T11:13:57.535Z,600.00
2023-05-21T11:14:57.591Z,601.00
2023-05-21T11:15:57.617Z,605.00
2023-05-21T11:16:57.638Z,609.00
2023-05-21T11:17:57.688Z,598.00
2023-05-21T11:18:57.658Z,605.00
2023-05-21T11:19:57.644Z,607.00
2023-05-21T11:20:57.633Z,608.00
2023-05-21T11:21:57.647Z,606.00
2023-05-21T11:22:57.637Z,606.00
2023-05-21T11:23:57.711Z,607.00
2023-05-21T11:24:57.719Z,598.00
2023-05-21T11:25:57.714Z,600.00
2023-05-21T11:26:57.729Z,608.00
2023-05-21T11:27:57.740Z,615.00
2023-05-21T11:28:57.785Z,615.00
2023-05-21T11:29:57.770Z,621.00
2023-05-21T11:30:57.810Z,616.00
2023-05-21T11:31:57.806Z,629.00
2023-05-21T11:32:57.841Z,637.00
2023-05-21T11:33:57.827Z,633.00
2023-05-21T11:34:57.837Z,645.00
2023-05-21T11:35:57.834Z,647.00
2023-05-21T11:36:57.901Z,662.00
2023-05-21T11:37:57.894Z,662.00
2023-05-21T11:38:57.927Z,662.00
2023-05-21T11:39:57.923Z,690.00
2023-05-21T11:40:57.922Z,719.00
2023-05-21T11:41:57.933Z,716.00
2023-05-21T11:42:57.998Z,732.00
2023-05-21T11:43:57.989Z,758.00
2023-05-21T11:44:58.009Z,776.00
2023-05-21T11:45:58.076Z,802.00
2023-05-21T11:46:58.045Z,819.00
2023-05-21T11:47:58.111Z,819.00
2023-05-21T11:48:58.094Z,822.00
2023-05-21T11:49:58.080Z,838.00
2023-05-21T11:50:58.138Z,834.00
2023-05-21T11:51:58.140Z,827.00
2023-05-21T11:52:58.182Z,830.00
2023-05-21T11:53:58.169Z,854.00
2023-05-21T11:54:58.209Z,872.00
2023-05-21T11:55:58.244Z,878.00
2023-05-21T11:56:58.214Z,902.00
2023-05-21T11:57:58.238Z,921.00
2023-05-21T11:58:58.258Z,997.00
2023-05-21T11:59:58.356Z,1026.00
2023-05-21T12:00:58.315Z,1022.00
2023-05-21T12:01:58.323Z,1056.00
2023-05-21T12:02:58.428Z,1068.00
2023-05-21T12:03:58.393Z,1077.00
2023-05-21T12:04:58.321Z,1089.00
2023-05-21T12:05:58.509Z,1084.00
2023-05-21T12:06:58.413Z,1075.00
2023-05-21T12:07:59.120Z,1122.00
2023-05-21T12:08:58.625Z,1159.00
2023-05-21T12:09:58.473Z,1167.00
2023-05-21T12:10:58.483Z,1148.00